sensor_id;sensor_type;location;lat;lon;timestamp;temperature;humidity
37844;DHT22;63793;57.632;18.292;2022-11-15T00:01:29;8.40;99.90
37844;DHT22;63793;57.632;18.292;2022-11-15T00:04:14;8.40;99.90
37844;DHT22;63793;57.632;18.292;2022-11-15T00:07:00;8.40;99.90
37844;DHT22;63793;57.632;18.292;2022-11-15T00:09:46;8.30;99.90
37844;DHT22;63793;57.632;18.292;2022-11-15T00:12:31;8.30;99.90
37844;DHT22;63793;57.632;18.292;2022-11-15T00:15:16;8.30;99.90
37844;DHT22;63793;57.632;18.292;2022-11-15T00:18:03;8.30;99.90
37844;DHT22;63793;57.632;18.292;2022-11-15T00:20:49;8.30;99.90
37844;DHT22;63793;57.632;18.292;2022-11-15T00:23:35;8.30;99.90
37844;DHT22;63793;57.632;18.292;2022-11-15T00:26:20;8.30;99.90
37844;DHT22;63793;57.632;18.292;2022-11-15T00:29:06;8.30;99.90
37844;DHT22;63793;57.632;18.292;2022-11-15T00:31:52;8.30;99.90
37844;DHT22;63793;57.632;18.292;2022-11-15T00:34:37;8.30;99.90
37844;DHT22;63793;57.632;18.292;2022-11-15T00:37:23;8.30;99.90
37844;DHT22;63793;57.632;18.292;2022-11-15T00:40:09;8.30;99.90
37844;DHT22;63793;57.632;18.292;2022-11-15T00:42:55;8.30;99.90
37844;DHT22;63793;57.632;18.292;2022-11-15T00:45:40;8.30;99.90
37844;DHT22;63793;57.632;18.292;2022-11-15T00:48:26;8.30;99.90
37844;DHT22;63793;57.632;18.292;2022-11-15T00:51:11;8.30;99.90
37844;DHT22;63793;57.632;18.292;2022-11-15T00:53:57;8.30;99.90
37844;DHT22;63793;57.632;18.292;2022-11-15T00:56:42;8.30;99.90
37844;DHT22;63793;57.632;18.292;2022-11-15T00:59:28;8.30;99.90
37844;DHT22;63793;57.632;18.292;2022-11-15T01:02:13;8.30;99.90
37844;DHT22;63793;57.632;18.292;2022-11-15T01:04:59;8.30;99.90
37844;DHT22;63793;57.632;18.292;2022-11-15T01:07:45;8.30;99.90
37844;DHT22;63793;57.632;18.292;2022-11-15T01:10:30;8.30;99.90
37844;DHT22;63793;57.632;18.292;2022-11-15T01:13:16;8.30;99.90
37844;DHT22;63793;57.632;18.292;2022-11-15T01:16:12;8.30;99.90
37844;DHT22;63793;57.632;18.292;2022-11-15T01:18:57;8.30;99.90
37844;DHT22;63793;57.632;18.292;2022-11-15T01:21:43;8.30;99.90
37844;DHT22;63793;57.632;18.292;2022-11-15T01:24:29;8.30;99.90
37844;DHT22;63793;57.632;18.292;2022-11-15T01:27:14;8.30;99.90
37844;DHT22;63793;57.632;18.292;2022-11-15T01:29:59;8.30;99.90
37844;DHT22;63793;57.632;18.292;2022-11-15T01:32:45;8.30;99.90
37844;DHT22;63793;57.632;18.292;2022-11-15T01:35:30;8.30;99.90
37844;DHT22;63793;57.632;18.292;2022-11-15T01:38:16;8.30;99.90
37844;DHT22;63793;57.632;18.292;2022-11-15T01:41:02;8.30;99.90
37844;DHT22;63793;57.632;18.292;2022-11-15T01:43:53;8.30;99.90
37844;DHT22;63793;57.632;18.292;2022-11-15T01:46:39;8.30;99.90
37844;DHT22;63793;57.632;18.292;2022-11-15T01:49:27;8.30;99.90
37844;DHT22;63793;57.632;18.292;2022-11-15T01:52:17;8.30;99.90
37844;DHT22;63793;57.632;18.292;2022-11-15T01:55:10;8.30;99.90
37844;DHT22;63793;57.632;18.292;2022-11-15T01:57:59;8.30;99.90
37844;DHT22;63793;57.632;18.292;2022-11-15T02:00:46;8.30;99.90
37844;DHT22;63793;57.632;18.292;2022-11-15T02:03:42;8.20;99.90
37844;DHT22;63793;57.632;18.292;2022-11-15T02:06:31;8.20;99.90
37844;DHT22;63793;57.632;18.292;2022-11-15T02:09:17;8.20;99.90
37844;DHT22;63793;57.632;18.292;2022-11-15T02:12:03;8.20;99.90
37844;DHT22;63793;57.632;18.292;2022-11-15T02:14:53;8.20;99.90
37844;DHT22;63793;57.632;18.292;2022-11-15T02:21:28;8.10;99.90
37844;DHT22;63793;57.632;18.292;2022-11-15T02:33:14;8.20;99.90
37844;DHT22;63793;57.632;18.292;2022-11-15T02:36:02;8.20;99.90
37844;DHT22;63793;57.632;18.292;2022-11-15T02:41:41;8.20;99.90
37844;DHT22;63793;57.632;18.292;2022-11-15T02:44:35;8.20;99.90
37844;DHT22;63793;57.632;18.292;2022-11-15T02:47:23;8.20;99.90
37844;DHT22;63793;57.632;18.292;2022-11-15T02:50:16;8.20;99.90
37844;DHT22;63793;57.632;18.292;2022-11-15T02:53:03;8.20;99.90
37844;DHT22;63793;57.632;18.292;2022-11-15T02:55:50;8.20;99.90
37844;DHT22;63793;57.632;18.292;2022-11-15T02:59:16;8.20;99.90
37844;DHT22;63793;57.632;18.292;2022-11-15T03:06:12;8.20;99.90
37844;DHT22;63793;57.632;18.292;2022-11-15T03:08:43;8.20;99.90
37844;DHT22;63793;57.632;18.292;2022-11-15T03:11:35;8.20;99.90
37844;DHT22;63793;57.632;18.292;2022-11-15T03:14:56;8.20;99.90
37844;DHT22;63793;57.632;18.292;2022-11-15T03:17:49;8.20;99.90
37844;DHT22;63793;57.632;18.292;2022-11-15T03:20:36;8.20;99.90
37844;DHT22;63793;57.632;18.292;2022-11-15T03:23:22;8.20;99.90
37844;DHT22;63793;57.632;18.292;2022-11-15T03:26:11;8.20;99.90
37844;DHT22;63793;57.632;18.292;2022-11-15T03:29:01;8.10;99.90
37844;DHT22;63793;57.632;18.292;2022-11-15T03:31:50;8.20;99.90
37844;DHT22;63793;57.632;18.292;2022-11-15T03:37:32;8.20;99.90
37844;DHT22;63793;57.632;18.292;2022-11-15T03:40:24;8.10;99.90
37844;DHT22;63793;57.632;18.292;2022-11-15T03:46:05;8.20;99.90
37844;DHT22;63793;57.632;18.292;2022-11-15T03:48:54;8.10;99.90
37844;DHT22;63793;57.632;18.292;2022-11-15T03:51:42;8.20;99.90
37844;DHT22;63793;57.632;18.292;2022-11-15T03:54:28;8.10;99.90
37844;DHT22;63793;57.632;18.292;2022-11-15T03:57:13;8.10;99.90
37844;DHT22;63793;57.632;18.292;2022-11-15T03:59:59;8.20;99.90
37844;DHT22;63793;57.632;18.292;2022-11-15T04:02:44;8.10;99.90
37844;DHT22;63793;57.632;18.292;2022-11-15T04:05:30;8.10;99.90
37844;DHT22;63793;57.632;18.292;2022-11-15T04:08:15;8.20;99.90
37844;DHT22;63793;57.632;18.292;2022-11-15T04:11:01;8.20;99.90
37844;DHT22;63793;57.632;18.292;2022-11-15T04:13:46;8.20;99.90
37844;DHT22;63793;57.632;18.292;2022-11-15T04:16:32;8.20;99.90
37844;DHT22;63793;57.632;18.292;2022-11-15T04:19:17;8.20;99.90
37844;DHT22;63793;57.632;18.292;2022-11-15T04:22:21;8.20;99.90
37844;DHT22;63793;57.632;18.292;2022-11-15T04:25:25;8.20;99.90
37844;DHT22;63793;57.632;18.292;2022-11-15T04:28:16;8.20;99.90
37844;DHT22;63793;57.632;18.292;2022-11-15T04:31:02;8.20;99.90
37844;DHT22;63793;57.632;18.292;2022-11-15T04:33:47;8.20;99.90
37844;DHT22;63793;57.632;18.292;2022-11-15T04:36:33;8.20;99.90
37844;DHT22;63793;57.632;18.292;2022-11-15T04:39:37;8.20;99.90
37844;DHT22;63793;57.632;18.292;2022-11-15T04:42:23;8.20;99.90
37844;DHT22;63793;57.632;18.292;2022-11-15T04:45:09;8.20;99.90
37844;DHT22;63793;57.632;18.292;2022-11-15T04:47:54;8.20;99.90
37844;DHT22;63793;57.632;18.292;2022-11-15T04:50:40;8.20;99.90
37844;DHT22;63793;57.632;18.292;2022-11-15T04:53:25;8.20;99.90
37844;DHT22;63793;57.632;18.292;2022-11-15T04:56:11;8.20;99.90
37844;DHT22;63793;57.632;18.292;2022-11-15T04:58:57;8.20;99.90
37844;DHT22;63793;57.632;18.292;2022-11-15T05:01:42;8.10;99.90
37844;DHT22;63793;57.632;18.292;2022-11-15T05:04:29;8.10;99.90
37844;DHT22;63793;57.632;18.292;2022-11-15T05:07:15;8.10;99.90
37844;DHT22;63793;57.632;18.292;2022-11-15T05:10:00;8.10;99.90
37844;DHT22;63793;57.632;18.292;2022-11-15T05:12:46;8.10;99.90
37844;DHT22;63793;57.632;18.292;2022-11-15T05:15:32;8.20;99.90
37844;DHT22;63793;57.632;18.292;2022-11-15T05:18:17;8.20;99.90
37844;DHT22;63793;57.632;18.292;2022-11-15T05:21:10;8.10;99.90
37844;DHT22;63793;57.632;18.292;2022-11-15T05:23:55;8.10;99.90
37844;DHT22;63793;57.632;18.292;2022-11-15T05:26:41;8.10;99.90
37844;DHT22;63793;57.632;18.292;2022-11-15T05:29:27;8.10;99.90
37844;DHT22;63793;57.632;18.292;2022-11-15T05:32:13;8.10;99.90
37844;DHT22;63793;57.632;18.292;2022-11-15T05:34:58;8.10;99.90
37844;DHT22;63793;57.632;18.292;2022-11-15T05:37:44;8.10;99.90
37844;DHT22;63793;57.632;18.292;2022-11-15T05:40:30;8.10;99.90
37844;DHT22;63793;57.632;18.292;2022-11-15T05:43:16;8.10;99.90
37844;DHT22;63793;57.632;18.292;2022-11-15T05:46:03;8.10;99.90
37844;DHT22;63793;57.632;18.292;2022-11-15T05:48:50;8.10;99.90
37844;DHT22;63793;57.632;18.292;2022-11-15T05:51:37;8.10;99.90
37844;DHT22;63793;57.632;18.292;2022-11-15T05:54:23;8.10;99.90
37844;DHT22;63793;57.632;18.292;2022-11-15T05:57:09;8.10;99.90
37844;DHT22;63793;57.632;18.292;2022-11-15T05:59:55;8.10;99.90
37844;DHT22;63793;57.632;18.292;2022-11-15T06:02:40;8.10;99.90
37844;DHT22;63793;57.632;18.292;2022-11-15T06:05:26;8.10;99.90
37844;DHT22;63793;57.632;18.292;2022-11-15T06:08:11;8.10;99.90
37844;DHT22;63793;57.632;18.292;2022-11-15T06:11:03;8.10;99.90
37844;DHT22;63793;57.632;18.292;2022-11-15T06:13:49;8.10;99.90
37844;DHT22;63793;57.632;18.292;2022-11-15T06:16:34;8.10;99.90
37844;DHT22;63793;57.632;18.292;2022-11-15T06:19:20;8.10;99.90
37844;DHT22;63793;57.632;18.292;2022-11-15T06:22:05;8.10;99.90
37844;DHT22;63793;57.632;18.292;2022-11-15T06:24:51;8.10;99.90
37844;DHT22;63793;57.632;18.292;2022-11-15T06:27:36;8.10;99.90
37844;DHT22;63793;57.632;18.292;2022-11-15T06:30:22;8.00;99.90
37844;DHT22;63793;57.632;18.292;2022-11-15T06:33:08;8.00;99.90
37844;DHT22;63793;57.632;18.292;2022-11-15T06:35:54;8.00;99.90
37844;DHT22;63793;57.632;18.292;2022-11-15T06:38:40;8.00;99.90
37844;DHT22;63793;57.632;18.292;2022-11-15T06:41:25;8.00;99.90
37844;DHT22;63793;57.632;18.292;2022-11-15T06:44:11;8.10;99.90
37844;DHT22;63793;57.632;18.292;2022-11-15T06:46:56;8.10;99.90
37844;DHT22;63793;57.632;18.292;2022-11-15T06:49:41;8.10;99.90
37844;DHT22;63793;57.632;18.292;2022-11-15T06:52:27;8.10;99.90
37844;DHT22;63793;57.632;18.292;2022-11-15T06:55:17;8.10;99.90
37844;DHT22;63793;57.632;18.292;2022-11-15T06:58:03;8.10;99.90
37844;DHT22;63793;57.632;18.292;2022-11-15T07:00:48;8.20;99.90
37844;DHT22;63793;57.632;18.292;2022-11-15T07:03:35;8.20;99.90
37844;DHT22;63793;57.632;18.292;2022-11-15T07:06:21;8.20;99.90
37844;DHT22;63793;57.632;18.292;2022-11-15T07:09:06;8.20;99.90
37844;DHT22;63793;57.632;18.292;2022-11-15T07:11:52;8.20;99.90
37844;DHT22;63793;57.632;18.292;2022-11-15T07:14:37;8.10;99.90
37844;DHT22;63793;57.632;18.292;2022-11-15T07:17:23;8.20;99.90
37844;DHT22;63793;57.632;18.292;2022-11-15T07:20:09;8.10;99.90
37844;DHT22;63793;57.632;18.292;2022-11-15T07:23:02;8.10;99.90
37844;DHT22;63793;57.632;18.292;2022-11-15T07:25:47;8.10;99.90
37844;DHT22;63793;57.632;18.292;2022-11-15T07:28:33;8.10;99.90
37844;DHT22;63793;57.632;18.292;2022-11-15T07:31:19;8.10;99.90
37844;DHT22;63793;57.632;18.292;2022-11-15T07:34:04;8.10;99.90
37844;DHT22;63793;57.632;18.292;2022-11-15T07:36:50;8.10;99.90
37844;DHT22;63793;57.632;18.292;2022-11-15T07:39:36;8.10;99.90
37844;DHT22;63793;57.632;18.292;2022-11-15T07:42:21;8.10;99.90
37844;DHT22;63793;57.632;18.292;2022-11-15T07:45:25;8.10;99.90
37844;DHT22;63793;57.632;18.292;2022-11-15T07:48:11;8.10;99.90
37844;DHT22;63793;57.632;18.292;2022-11-15T07:50:57;8.10;99.90
37844;DHT22;63793;57.632;18.292;2022-11-15T07:53:43;8.00;99.90
37844;DHT22;63793;57.632;18.292;2022-11-15T07:56:28;7.90;99.90
37844;DHT22;63793;57.632;18.292;2022-11-15T07:59:13;7.90;99.90
37844;DHT22;63793;57.632;18.292;2022-11-15T08:01:59;7.80;99.90
37844;DHT22;63793;57.632;18.292;2022-11-15T08:04:44;7.80;99.90
37844;DHT22;63793;57.632;18.292;2022-11-15T08:07:30;7.80;99.90
37844;DHT22;63793;57.632;18.292;2022-11-15T08:10:16;7.80;99.90
37844;DHT22;63793;57.632;18.292;2022-11-15T08:13:09;7.80;99.90
37844;DHT22;63793;57.632;18.292;2022-11-15T08:16:02;7.80;99.90
37844;DHT22;63793;57.632;18.292;2022-11-15T08:18:48;7.80;99.90
37844;DHT22;63793;57.632;18.292;2022-11-15T08:21:33;7.70;99.90
37844;DHT22;63793;57.632;18.292;2022-11-15T08:24:20;7.70;99.90
37844;DHT22;63793;57.632;18.292;2022-11-15T08:27:06;7.60;99.90
37844;DHT22;63793;57.632;18.292;2022-11-15T08:30:00;7.60;99.90
37844;DHT22;63793;57.632;18.292;2022-11-15T08:32:45;7.50;99.90
37844;DHT22;63793;57.632;18.292;2022-11-15T08:35:31;7.50;99.90
37844;DHT22;63793;57.632;18.292;2022-11-15T08:38:16;7.60;99.90
37844;DHT22;63793;57.632;18.292;2022-11-15T08:41:04;7.60;99.90
37844;DHT22;63793;57.632;18.292;2022-11-15T08:43:49;7.60;99.90
37844;DHT22;63793;57.632;18.292;2022-11-15T08:46:35;7.70;99.90
37844;DHT22;63793;57.632;18.292;2022-11-15T08:49:20;7.70;99.90
37844;DHT22;63793;57.632;18.292;2022-11-15T08:52:06;7.70;99.90
37844;DHT22;63793;57.632;18.292;2022-11-15T08:54:51;7.80;99.90
37844;DHT22;63793;57.632;18.292;2022-11-15T08:57:37;7.80;99.90
37844;DHT22;63793;57.632;18.292;2022-11-15T09:00:22;7.80;99.90
37844;DHT22;63793;57.632;18.292;2022-11-15T09:03:08;7.90;99.90
37844;DHT22;63793;57.632;18.292;2022-11-15T09:05:55;7.90;99.90
37844;DHT22;63793;57.632;18.292;2022-11-15T09:08:41;7.90;99.90
37844;DHT22;63793;57.632;18.292;2022-11-15T09:11:34;7.80;99.90
37844;DHT22;63793;57.632;18.292;2022-11-15T09:14:19;7.90;99.90
37844;DHT22;63793;57.632;18.292;2022-11-15T09:17:08;7.80;99.90
37844;DHT22;63793;57.632;18.292;2022-11-15T09:19:53;7.90;99.90
37844;DHT22;63793;57.632;18.292;2022-11-15T09:22:39;7.90;99.90
37844;DHT22;63793;57.632;18.292;2022-11-15T09:25:24;7.90;99.90
37844;DHT22;63793;57.632;18.292;2022-11-15T09:28:10;7.90;99.90
37844;DHT22;63793;57.632;18.292;2022-11-15T09:30:59;7.90;99.90
37844;DHT22;63793;57.632;18.292;2022-11-15T09:33:45;7.90;99.90
37844;DHT22;63793;57.632;18.292;2022-11-15T09:36:34;7.90;99.90
37844;DHT22;63793;57.632;18.292;2022-11-15T09:39:20;7.90;99.90
37844;DHT22;63793;57.632;18.292;2022-11-15T09:46:01;7.90;99.90
37844;DHT22;63793;57.632;18.292;2022-11-15T09:49:00;7.80;99.90
37844;DHT22;63793;57.632;18.292;2022-11-15T09:52:03;7.90;99.90
37844;DHT22;63793;57.632;18.292;2022-11-15T09:54:41;7.90;99.90
37844;DHT22;63793;57.632;18.292;2022-11-15T09:57:21;7.90;99.90
37844;DHT22;63793;57.632;18.292;2022-11-15T10:05:20;7.90;99.90
37844;DHT22;63793;57.632;18.292;2022-11-15T10:08:25;8.00;99.90
37844;DHT22;63793;57.632;18.292;2022-11-15T10:11:06;8.00;99.90
37844;DHT22;63793;57.632;18.292;2022-11-15T10:14:00;8.00;99.90
37844;DHT22;63793;57.632;18.292;2022-11-15T10:16:33;8.00;99.90
37844;DHT22;63793;57.632;18.292;2022-11-15T10:24:45;8.10;99.90
37844;DHT22;63793;57.632;18.292;2022-11-15T10:27:16;8.20;99.90
37844;DHT22;63793;57.632;18.292;2022-11-15T10:29:47;8.20;99.90
37844;DHT22;63793;57.632;18.292;2022-11-15T10:32:17;8.30;99.90
37844;DHT22;63793;57.632;18.292;2022-11-15T10:34:45;8.30;99.90
37844;DHT22;63793;57.632;18.292;2022-11-15T10:37:12;8.40;99.90
37844;DHT22;63793;57.632;18.292;2022-11-15T10:39:39;8.40;99.90
37844;DHT22;63793;57.632;18.292;2022-11-15T10:44:44;8.60;99.90
37844;DHT22;63793;57.632;18.292;2022-11-15T10:47:25;8.50;99.90
37844;DHT22;63793;57.632;18.292;2022-11-15T10:50:07;8.50;99.90
37844;DHT22;63793;57.632;18.292;2022-11-15T10:52:35;8.50;99.90
37844;DHT22;63793;57.632;18.292;2022-11-15T10:57:39;8.50;99.90
37844;DHT22;63793;57.632;18.292;2022-11-15T11:00:27;8.60;99.90
37844;DHT22;63793;57.632;18.292;2022-11-15T11:03:05;8.60;99.90
37844;DHT22;63793;57.632;18.292;2022-11-15T11:05:38;8.50;99.90
37844;DHT22;63793;57.632;18.292;2022-11-15T11:10:38;8.50;99.90
37844;DHT22;63793;57.632;18.292;2022-11-15T11:13:32;8.50;99.90
37844;DHT22;63793;57.632;18.292;2022-11-15T11:19:04;8.60;99.90
37844;DHT22;63793;57.632;18.292;2022-11-15T11:24:41;8.60;99.90
37844;DHT22;63793;57.632;18.292;2022-11-15T11:27:52;8.50;99.90
37844;DHT22;63793;57.632;18.292;2022-11-15T11:30:52;8.50;99.90
37844;DHT22;63793;57.632;18.292;2022-11-15T11:36:04;8.50;99.90
37844;DHT22;63793;57.632;18.292;2022-11-15T11:44:32;8.50;99.90
37844;DHT22;63793;57.632;18.292;2022-11-15T11:49:36;8.60;99.90
37844;DHT22;63793;57.632;18.292;2022-11-15T11:57:41;8.50;99.90
37844;DHT22;63793;57.632;18.292;2022-11-15T12:00:19;8.50;99.90
37844;DHT22;63793;57.632;18.292;2022-11-15T12:09:15;8.40;99.90
37844;DHT22;63793;57.632;18.292;2022-11-15T12:17:25;8.20;99.90
37844;DHT22;63793;57.632;18.292;2022-11-15T12:19:56;8.20;99.90
37844;DHT22;63793;57.632;18.292;2022-11-15T12:22:41;8.10;99.90
37844;DHT22;63793;57.632;18.292;2022-11-15T12:25:23;8.10;99.90
37844;DHT22;63793;57.632;18.292;2022-11-15T12:27:59;8.10;99.90
37844;DHT22;63793;57.632;18.292;2022-11-15T12:30:56;8.00;99.90
37844;DHT22;63793;57.632;18.292;2022-11-15T12:33:57;8.00;99.90
37844;DHT22;63793;57.632;18.292;2022-11-15T12:36:42;8.00;99.90
37844;DHT22;63793;57.632;18.292;2022-11-15T12:39:12;8.00;99.90
37844;DHT22;63793;57.632;18.292;2022-11-15T12:41:45;8.00;99.90
37844;DHT22;63793;57.632;18.292;2022-11-15T12:59:58;8.00;99.90
37844;DHT22;63793;57.632;18.292;2022-11-15T13:13:09;7.90;99.90
37844;DHT22;63793;57.632;18.292;2022-11-15T13:15:39;7.80;99.90
37844;DHT22;63793;57.632;18.292;2022-11-15T13:20:50;7.80;99.90
37844;DHT22;63793;57.632;18.292;2022-11-15T13:23:17;7.80;99.90
37844;DHT22;63793;57.632;18.292;2022-11-15T13:26:13;7.70;99.90
37844;DHT22;63793;57.632;18.292;2022-11-15T13:28:48;7.70;99.90
37844;DHT22;63793;57.632;18.292;2022-11-15T13:31:36;7.70;99.90
37844;DHT22;63793;57.632;18.292;2022-11-15T13:34:24;7.70;99.90
37844;DHT22;63793;57.632;18.292;2022-11-15T13:39:48;7.50;99.90
37844;DHT22;63793;57.632;18.292;2022-11-15T13:42:20;7.50;99.90
37844;DHT22;63793;57.632;18.292;2022-11-15T13:45:00;7.50;99.90
37844;DHT22;63793;57.632;18.292;2022-11-15T13:47:29;7.40;99.90
37844;DHT22;63793;57.632;18.292;2022-11-15T13:50:00;7.40;99.90
37844;DHT22;63793;57.632;18.292;2022-11-15T13:52:40;7.30;99.90
37844;DHT22;63793;57.632;18.292;2022-11-15T13:55:11;7.30;99.90
37844;DHT22;63793;57.632;18.292;2022-11-15T13:57:48;7.30;99.90
37844;DHT22;63793;57.632;18.292;2022-11-15T14:02:54;7.20;99.90
37844;DHT22;63793;57.632;18.292;2022-11-15T14:05:24;7.20;99.90
37844;DHT22;63793;57.632;18.292;2022-11-15T14:08:00;7.30;99.90
37844;DHT22;63793;57.632;18.292;2022-11-15T14:10:36;7.20;99.90
37844;DHT22;63793;57.632;18.292;2022-11-15T14:13:09;7.30;99.90
37844;DHT22;63793;57.632;18.292;2022-11-15T14:15:38;7.20;99.90
37844;DHT22;63793;57.632;18.292;2022-11-15T14:18:06;7.20;99.90
37844;DHT22;63793;57.632;18.292;2022-11-15T14:20:38;7.20;99.90
37844;DHT22;63793;57.632;18.292;2022-11-15T14:25:56;7.20;99.90
37844;DHT22;63793;57.632;18.292;2022-11-15T14:30:52;7.20;99.90
37844;DHT22;63793;57.632;18.292;2022-11-15T14:35:52;7.20;99.90
37844;DHT22;63793;57.632;18.292;2022-11-15T14:38:19;7.20;99.90
37844;DHT22;63793;57.632;18.292;2022-11-15T14:40:46;7.10;99.90
37844;DHT22;63793;57.632;18.292;2022-11-15T14:43:13;7.10;99.90
37844;DHT22;63793;57.632;18.292;2022-11-15T14:45:41;7.10;99.90
37844;DHT22;63793;57.632;18.292;2022-11-15T14:48:08;7.00;99.90
37844;DHT22;63793;57.632;18.292;2022-11-15T14:50:35;7.00;99.90
37844;DHT22;63793;57.632;18.292;2022-11-15T14:53:03;7.00;99.90
37844;DHT22;63793;57.632;18.292;2022-11-15T14:55:32;7.00;99.90
37844;DHT22;63793;57.632;18.292;2022-11-15T14:58:06;7.00;99.90
37844;DHT22;63793;57.632;18.292;2022-11-15T15:00:38;7.00;99.90
37844;DHT22;63793;57.632;18.292;2022-11-15T15:03:05;7.00;99.90
37844;DHT22;63793;57.632;18.292;2022-11-15T15:05:38;7.00;99.90
37844;DHT22;63793;57.632;18.292;2022-11-15T15:08:06;7.00;99.90
37844;DHT22;63793;57.632;18.292;2022-11-15T15:10:44;7.00;99.90
37844;DHT22;63793;57.632;18.292;2022-11-15T15:13:22;6.90;99.90
37844;DHT22;63793;57.632;18.292;2022-11-15T15:15:51;6.90;99.90
37844;DHT22;63793;57.632;18.292;2022-11-15T15:18:18;6.90;99.90
37844;DHT22;63793;57.632;18.292;2022-11-15T15:20:56;6.90;99.90
37844;DHT22;63793;57.632;18.292;2022-11-15T15:23:26;6.90;99.90
37844;DHT22;63793;57.632;18.292;2022-11-15T15:25:56;6.80;99.90
37844;DHT22;63793;57.632;18.292;2022-11-15T15:28:23;6.80;99.90
37844;DHT22;63793;57.632;18.292;2022-11-15T15:30:49;6.90;99.90
37844;DHT22;63793;57.632;18.292;2022-11-15T15:33:16;6.90;99.90
37844;DHT22;63793;57.632;18.292;2022-11-15T15:35:43;6.90;99.90
37844;DHT22;63793;57.632;18.292;2022-11-15T15:38:11;6.80;99.90
37844;DHT22;63793;57.632;18.292;2022-11-15T15:40:39;6.90;99.90
37844;DHT22;63793;57.632;18.292;2022-11-15T15:43:06;6.90;99.90
37844;DHT22;63793;57.632;18.292;2022-11-15T15:45:39;6.90;99.90
37844;DHT22;63793;57.632;18.292;2022-11-15T15:48:16;6.90;99.90
37844;DHT22;63793;57.632;18.292;2022-11-15T15:50:43;6.90;99.90
37844;DHT22;63793;57.632;18.292;2022-11-15T15:53:12;6.90;99.90
37844;DHT22;63793;57.632;18.292;2022-11-15T15:55:39;6.80;99.90
37844;DHT22;63793;57.632;18.292;2022-11-15T15:58:06;6.80;99.90
37844;DHT22;63793;57.632;18.292;2022-11-15T16:00:35;6.90;99.90
37844;DHT22;63793;57.632;18.292;2022-11-15T16:03:03;6.80;99.90
37844;DHT22;63793;57.632;18.292;2022-11-15T16:05:30;6.80;99.90
37844;DHT22;63793;57.632;18.292;2022-11-15T16:07:57;6.90;99.90
37844;DHT22;63793;57.632;18.292;2022-11-15T16:10:26;6.80;99.90
37844;DHT22;63793;57.632;18.292;2022-11-15T16:12:54;6.80;99.90
37844;DHT22;63793;57.632;18.292;2022-11-15T16:15:23;6.80;99.90
37844;DHT22;63793;57.632;18.292;2022-11-15T16:17:52;6.80;99.90
37844;DHT22;63793;57.632;18.292;2022-11-15T16:23:02;6.80;99.90
37844;DHT22;63793;57.632;18.292;2022-11-15T16:25:47;6.80;99.90
37844;DHT22;63793;57.632;18.292;2022-11-15T16:28:20;6.80;99.90
37844;DHT22;63793;57.632;18.292;2022-11-15T16:30:47;6.80;99.90
37844;DHT22;63793;57.632;18.292;2022-11-15T16:33:22;6.80;99.90
37844;DHT22;63793;57.632;18.292;2022-11-15T16:35:49;6.80;99.90
37844;DHT22;63793;57.632;18.292;2022-11-15T16:38:17;6.80;99.90
37844;DHT22;63793;57.632;18.292;2022-11-15T16:40:44;6.80;99.90
37844;DHT22;63793;57.632;18.292;2022-11-15T16:43:11;6.70;99.90
37844;DHT22;63793;57.632;18.292;2022-11-15T16:45:38;6.80;99.90
37844;DHT22;63793;57.632;18.292;2022-11-15T16:48:05;6.70;99.90
37844;DHT22;63793;57.632;18.292;2022-11-15T16:50:34;6.70;99.90
37844;DHT22;63793;57.632;18.292;2022-11-15T16:53:07;6.80;99.90
37844;DHT22;63793;57.632;18.292;2022-11-15T16:55:34;6.70;99.90
37844;DHT22;63793;57.632;18.292;2022-11-15T16:58:00;6.70;99.90
37844;DHT22;63793;57.632;18.292;2022-11-15T17:00:28;6.70;99.90
37844;DHT22;63793;57.632;18.292;2022-11-15T17:02:55;6.70;99.90
37844;DHT22;63793;57.632;18.292;2022-11-15T17:05:24;6.70;99.90
37844;DHT22;63793;57.632;18.292;2022-11-15T17:07:52;6.70;99.90
37844;DHT22;63793;57.632;18.292;2022-11-15T17:10:21;6.70;99.90
37844;DHT22;63793;57.632;18.292;2022-11-15T17:12:48;6.70;99.90
37844;DHT22;63793;57.632;18.292;2022-11-15T17:15:16;6.70;99.90
37844;DHT22;63793;57.632;18.292;2022-11-15T17:17:44;6.60;99.90
37844;DHT22;63793;57.632;18.292;2022-11-15T17:20:15;6.60;99.90
37844;DHT22;63793;57.632;18.292;2022-11-15T17:22:42;6.60;99.90
37844;DHT22;63793;57.632;18.292;2022-11-15T17:25:10;6.60;99.90
37844;DHT22;63793;57.632;18.292;2022-11-15T17:27:37;6.70;99.90
37844;DHT22;63793;57.632;18.292;2022-11-15T17:30:04;6.60;99.90
37844;DHT22;63793;57.632;18.292;2022-11-15T17:32:31;6.60;99.90
37844;DHT22;63793;57.632;18.292;2022-11-15T17:34:58;6.60;99.90
37844;DHT22;63793;57.632;18.292;2022-11-15T17:37:25;6.60;99.90
37844;DHT22;63793;57.632;18.292;2022-11-15T17:39:52;6.60;99.90
37844;DHT22;63793;57.632;18.292;2022-11-15T17:42:19;6.60;99.90
37844;DHT22;63793;57.632;18.292;2022-11-15T17:44:46;6.60;99.90
37844;DHT22;63793;57.632;18.292;2022-11-15T17:47:12;6.50;99.90
37844;DHT22;63793;57.632;18.292;2022-11-15T17:49:39;6.50;99.90
37844;DHT22;63793;57.632;18.292;2022-11-15T17:52:07;6.50;99.90
37844;DHT22;63793;57.632;18.292;2022-11-15T17:54:33;6.50;99.90
37844;DHT22;63793;57.632;18.292;2022-11-15T17:57:00;6.50;99.90
37844;DHT22;63793;57.632;18.292;2022-11-15T17:59:27;6.50;99.90
37844;DHT22;63793;57.632;18.292;2022-11-15T18:01:54;6.50;99.90
37844;DHT22;63793;57.632;18.292;2022-11-15T18:04:21;6.60;99.90
37844;DHT22;63793;57.632;18.292;2022-11-15T18:06:54;6.60;99.90
37844;DHT22;63793;57.632;18.292;2022-11-15T18:09:22;6.60;99.90
37844;DHT22;63793;57.632;18.292;2022-11-15T18:11:51;6.60;99.90
37844;DHT22;63793;57.632;18.292;2022-11-15T18:14:20;6.60;99.90
37844;DHT22;63793;57.632;18.292;2022-11-15T18:16:47;6.60;99.90
37844;DHT22;63793;57.632;18.292;2022-11-15T18:19:14;6.60;99.90
37844;DHT22;63793;57.632;18.292;2022-11-15T18:21:43;6.60;99.90
37844;DHT22;63793;57.632;18.292;2022-11-15T18:24:27;6.60;99.90
37844;DHT22;63793;57.632;18.292;2022-11-15T18:26:55;6.60;99.90
37844;DHT22;63793;57.632;18.292;2022-11-15T18:29:22;6.60;99.90
37844;DHT22;63793;57.632;18.292;2022-11-15T18:31:51;6.60;99.90
37844;DHT22;63793;57.632;18.292;2022-11-15T18:34:22;6.60;99.90
37844;DHT22;63793;57.632;18.292;2022-11-15T18:36:51;6.60;99.90
37844;DHT22;63793;57.632;18.292;2022-11-15T18:39:18;6.70;99.90
37844;DHT22;63793;57.632;18.292;2022-11-15T18:41:46;6.70;99.90
37844;DHT22;63793;57.632;18.292;2022-11-15T18:44:13;6.70;99.90
37844;DHT22;63793;57.632;18.292;2022-11-15T18:46:40;6.70;99.90
37844;DHT22;63793;57.632;18.292;2022-11-15T18:49:08;6.70;99.90
37844;DHT22;63793;57.632;18.292;2022-11-15T18:51:36;6.70;99.90
37844;DHT22;63793;57.632;18.292;2022-11-15T18:54:03;6.70;99.90
37844;DHT22;63793;57.632;18.292;2022-11-15T18:56:31;6.70;99.90
37844;DHT22;63793;57.632;18.292;2022-11-15T18:59:00;6.70;99.90